Cavok V — PB7130 — position and weather

sailwx.info

Track history (hours):
 
Tides and Currents Weather Stations Pressure Air Temp Water Temp Dewpoint Dewpoint Depression Visibility Wind Speed Wind Dir Waves Ship Positions

Cavok V

Last reported at 2017-Sep-01 11:30 UTC. Time now 2017-Sep-21 01:48 UTC.
Position N 51°52' E 004°39'.
Warning: this ship's position is 19 days out of date.

Type: Sailing vessel. MMSI: 244690846.

Date/timePositionNaut miles runAvg speedWind from/ knotsBaromVisibWave heightAir tempDewpointWater temp
2017-Sep-01 11:30N 51°52' E 004°39'3 6.1
2017-Sep-01 10:59N 51°48' E 004°39'3 6.3
2017-Sep-01 10:30N 51°45' E 004°38'3 6.6
2017-Sep-01 10:00N 51°42' E 004°36'4 7.7
2017-Sep-01 09:30N 51°42' E 004°30'3 5.1
2017-Sep-01 09:00N 51°42' E 004°25'0 0.0
2017-Sep-01 08:29N 51°42' E 004°25'0 0.0
2017-Sep-01 08:00N 51°42' E 004°25'1 1.4
2017-Sep-01 07:30N 51°41' E 004°25'7 6.4
2017-Sep-01 06:25N 51°38' E 004°15'4 5.3
2017-Sep-01 05:35N 51°34' E 004°14'2 6.9
2017-Sep-01 05:21N 51°32' E 004°14'4 7.1
2017-Sep-01 04:51N 51°29' E 004°14'2 4.8
2017-Sep-01 04:29N 51°27' E 004°14'0 0.5
2017-Sep-01 03:55N 51°27' E 004°14'1 1.6
2017-Sep-01 03:27N 51°26' E 004°14'3 6.2
2017-Sep-01 02:59N 51°23' E 004°15'3 5.9
2017-Sep-01 02:29N 51°21' E 004°18'4 7.9
2017-Sep-01 02:00N 51°17' E 004°20'2 4.4
2017-Sep-01 01:29N 51°15' E 004°22'0 0.0
2017-Sep-01 01:00N 51°15' E 004°22'0 0.0
2017-Sep-01 00:30N 51°15' E 004°22'0 0.0
2017-Sep-01 00:00N 51°15' E 004°22'0 0.0
2017-Aug-31 23:29N 51°15' E 004°22'0 0.0
2017-Aug-31 23:00N 51°15' E 004°22'  
Track history (hours):
 
Tides and Currents Weather Stations Pressure Air Temp Water Temp Dewpoint Dewpoint Depression Visibility Wind Speed Wind Dir Waves Ship Positions

Cavok V

Last reported at 2017-Sep-01 11:30 UTC. Time now 2017-Sep-21 01:48 UTC.
Position N 51°52' E 004°39'.
Warning: this ship's position is 19 days out of date.

Type: Sailing vessel. MMSI: 244690846.

Date/timePositionNaut miles runAvg speedWind from/ knotsBaromVisibWave heightAir tempDewpointWater temp
2017-Sep-01 11:30N 51°52' E 004°39'3 6.1
2017-Sep-01 10:59N 51°48' E 004°39'3 6.3
2017-Sep-01 10:30N 51°45' E 004°38'3 6.6
2017-Sep-01 10:00N 51°42' E 004°36'4 7.7
2017-Sep-01 09:30N 51°42' E 004°30'3 5.1
2017-Sep-01 09:00N 51°42' E 004°25'0 0.0
2017-Sep-01 08:29N 51°42' E 004°25'0 0.0
2017-Sep-01 08:00N 51°42' E 004°25'1 1.4
2017-Sep-01 07:30N 51°41' E 004°25'7 6.4
2017-Sep-01 06:25N 51°38' E 004°15'4 5.3
2017-Sep-01 05:35N 51°34' E 004°14'2 6.9
2017-Sep-01 05:21N 51°32' E 004°14'4 7.1
2017-Sep-01 04:51N 51°29' E 004°14'2 4.8
2017-Sep-01 04:29N 51°27' E 004°14'0 0.5
2017-Sep-01 03:55N 51°27' E 004°14'1 1.6
2017-Sep-01 03:27N 51°26' E 004°14'3 6.2
2017-Sep-01 02:59N 51°23' E 004°15'3 5.9
2017-Sep-01 02:29N 51°21' E 004°18'4 7.9
2017-Sep-01 02:00N 51°17' E 004°20'2 4.4
2017-Sep-01 01:29N 51°15' E 004°22'0 0.0
2017-Sep-01 01:00N 51°15' E 004°22'0 0.0
2017-Sep-01 00:30N 51°15' E 004°22'0 0.0
2017-Sep-01 00:00N 51°15' E 004°22'0 0.0
2017-Aug-31 23:29N 51°15' E 004°22'0 0.0
2017-Aug-31 23:00N 51°15' E 004°22'  

Dump ship's entire track history